createdAt,value
2022-09-18T00:04:15.233Z,2.58
2022-09-18T00:18:10.818Z,3.67
2022-09-18T00:54:39.846Z,3.65
2022-09-18T01:01:58.568Z,4.65
2022-09-18T01:05:41.445Z,3.42
2022-09-18T01:23:00.195Z,3.73
2022-09-18T01:35:09.820Z,4.20
2022-09-18T02:05:43.297Z,4.10
2022-09-18T02:18:59.153Z,5.13
2022-09-18T02:40:24.509Z,6.10
2022-09-18T02:43:00.840Z,6.78
2022-09-18T02:43:21.215Z,7.13
2022-09-18T02:46:50.696Z,6.00
2022-09-18T02:50:09.470Z,5.68
2022-09-18T03:37:14.387Z,5.30
2022-09-18T03:45:49.468Z,4.80
2022-09-18T03:58:14.322Z,5.28
2022-09-18T04:15:39.163Z,5.60
2022-09-18T04:19:17.052Z,6.15
2022-09-18T04:30:55.272Z,5.20
2022-09-18T04:42:47.900Z,5.45
2022-09-18T04:56:06.649Z,4.40
2022-09-18T05:03:09.875Z,5.22
2022-09-18T05:07:16.146Z,5.10
2022-09-18T05:10:12.277Z,4.97
2022-09-18T05:12:59.492Z,5.57
2022-09-18T05:15:33.198Z,5.50
2022-09-18T05:18:27.072Z,5.10
2022-09-18T05:25:45.355Z,5.28
2022-09-18T05:29:29.911Z,5.50
2022-09-18T05:35:37.733Z,5.78
2022-09-18T05:38:30.893Z,5.65
2022-09-18T05:42:13.720Z,5.28
2022-09-18T06:08:32.739Z,6.25
2022-09-18T06:11:49.558Z,7.57
2022-09-18T06:15:16.602Z,6.63
2022-09-18T06:20:58.520Z,7.13
2022-09-18T06:24:46.973Z,7.10
2022-09-18T06:31:00.806Z,5.90
2022-09-18T06:34:55.850Z,6.28
2022-09-18T06:38:17.754Z,5.70
2022-09-18T06:41:13.672Z,6.45
2022-09-18T06:44:31.028Z,6.67
2022-09-18T06:51:34.462Z,7.07
2022-09-18T07:12:12.460Z,4.82
2022-09-18T07:23:08.564Z,3.80
2022-09-18T07:27:10.740Z,4.32
2022-09-18T07:30:15.369Z,4.40
2022-09-18T07:33:10.268Z,4.18
2022-09-18T07:39:47.534Z,4.20
2022-09-18T07:42:42.072Z,4.45
2022-09-18T07:45:41.170Z,4.45
2022-09-18T07:48:47.847Z,4.63
2022-09-18T07:51:31.176Z,4.10
2022-09-18T07:54:00.841Z,4.40
2022-09-18T07:57:54.257Z,4.47
2022-09-18T08:00:35.233Z,3.75
2022-09-18T08:03:31.149Z,4.88
2022-09-18T08:06:09.981Z,4.65
2022-09-18T08:08:46.795Z,4.70
2022-09-18T08:12:05.930Z,4.63
2022-09-18T08:14:52.923Z,4.57
2022-09-18T08:18:54.606Z,5.22
2022-09-18T08:21:58.618Z,4.50
2022-09-18T08:24:34.883Z,4.05
2022-09-18T08:29:56.112Z,4.18
2022-09-18T08:32:26.332Z,4.90
2022-09-18T08:35:05.780Z,4.93
2022-09-18T08:37:34.559Z,4.60
2022-09-18T08:41:15.333Z,5.10
2022-09-18T08:44:02.759Z,4.38
2022-09-18T08:46:50.867Z,5.10
2022-09-18T08:53:34.874Z,5.50
2022-09-18T08:56:25.966Z,5.22
2022-09-18T08:59:27.645Z,5.10
2022-09-18T09:02:25.026Z,5.03
2022-09-18T09:04:59.537Z,5.60
2022-09-18T09:08:09.474Z,5.90
2022-09-18T09:15:21.724Z,5.80
2022-09-18T09:18:13.842Z,6.00
2022-09-18T09:21:26.560Z,5.72
2022-09-18T09:24:21.438Z,5.63
2022-09-18T09:27:39.516Z,5.00
2022-09-18T09:30:19.452Z,5.68
2022-09-18T09:33:12.204Z,5.60
2022-09-18T09:36:13.247Z,6.03
2022-09-18T09:39:09.478Z,5.60
2022-09-18T09:41:50.350Z,6.65
2022-09-18T09:44:33.781Z,7.07
2022-09-18T09:47:43.221Z,6.53
2022-09-18T09:50:34.233Z,6.70
2022-09-18T09:53:32.107Z,6.60
2022-09-18T09:56:29.155Z,6.50
2022-09-18T09:59:23.569Z,6.50
2022-09-18T10:02:42.094Z,5.50
2022-09-18T10:05:29.723Z,5.60
2022-09-18T10:08:20.530Z,5.70
2022-09-18T10:10:58.737Z,5.57
2022-09-18T10:13:56.890Z,5.43
2022-09-18T10:16:40.899Z,5.32
2022-09-18T10:21:56.156Z,4.90
2022-09-18T10:24:34.690Z,5.18
2022-09-18T10:27:31.580Z,5.03
2022-09-18T10:30:15.659Z,5.00
2022-09-18T10:34:05.855Z,5.20
2022-09-18T10:36:43.675Z,5.78
2022-09-18T10:39:49.194Z,6.13
2022-09-18T10:45:54.984Z,5.93
2022-09-18T10:48:51.235Z,6.07
2022-09-18T10:51:33.537Z,6.60
2022-09-18T10:54:19.721Z,5.93
2022-09-18T10:58:00.912Z,5.75
2022-09-18T11:01:33.811Z,6.28
2022-09-18T11:09:07.660Z,5.53
2022-09-18T11:11:52.297Z,5.70
2022-09-18T11:14:50.877Z,5.55
2022-09-18T11:17:59.803Z,5.10
2022-09-18T11:20:45.938Z,5.93
2022-09-18T11:23:38.174Z,5.47
2022-09-18T11:26:27.301Z,4.28
2022-09-18T11:29:19.130Z,4.88
2022-09-18T11:32:21.572Z,4.50
2022-09-18T11:35:17.658Z,5.00
2022-09-18T11:38:08.331Z,5.57
2022-09-18T11:40:51.709Z,5.53
2022-09-18T11:51:02.205Z,7.05
2022-09-18T11:54:01.855Z,6.60
2022-09-18T11:57:17.789Z,5.95
2022-09-18T12:00:07.762Z,5.18
2022-09-18T12:03:18.581Z,5.53
2022-09-18T12:06:10.480Z,6.82
2022-09-18T12:09:20.802Z,5.55
2022-09-18T12:12:32.394Z,5.80
2022-09-18T12:15:45.359Z,5.95
2022-09-18T12:18:33.353Z,6.55
2022-09-18T12:21:17.350Z,8.30
2022-09-18T12:23:48.742Z,7.90
2022-09-18T12:26:35.039Z,8.77
2022-09-18T12:30:26.565Z,8.27
2022-09-18T12:34:08.566Z,7.70
2022-09-18T12:38:14.860Z,8.13
2022-09-18T12:41:49.462Z,7.65
2022-09-18T12:49:47.523Z,7.60
2022-09-18T12:53:10.324Z,7.43
2022-09-18T12:56:15.620Z,7.05
2022-09-18T12:59:48.510Z,6.88
2022-09-18T13:03:17.929Z,6.65
2022-09-18T13:06:00.825Z,7.63
2022-09-18T13:09:09.118Z,6.68
2022-09-18T13:11:42.125Z,6.93
2022-09-18T13:14:29.657Z,6.78
2022-09-18T13:17:07.664Z,6.80
2022-09-18T13:19:54.881Z,7.18
2022-09-18T13:22:41.691Z,7.43
2022-09-18T13:25:43.866Z,7.10
2022-09-18T13:28:18.584Z,5.95
2022-09-18T13:30:49.851Z,6.68
2022-09-18T13:33:26.412Z,6.60
2022-09-18T13:35:59.175Z,7.10
2022-09-18T13:38:30.215Z,6.25
2022-09-18T13:41:00.958Z,5.95
2022-09-18T13:43:29.221Z,6.00
2022-09-18T13:46:03.484Z,5.82
2022-09-18T13:48:35.710Z,6.35
2022-09-18T13:51:29.541Z,5.78
2022-09-18T13:54:24.794Z,5.18
2022-09-18T13:57:10.778Z,4.57
2022-09-18T14:00:10.187Z,4.25
2022-09-18T14:02:44.607Z,4.43
2022-09-18T14:05:34.483Z,3.58
2022-09-18T14:08:19.558Z,3.65
2022-09-18T14:11:05.001Z,3.83
2022-09-18T14:13:58.709Z,3.60
2022-09-18T14:16:46.433Z,3.78
2022-09-18T14:19:43.490Z,3.90
2022-09-18T14:22:43.296Z,3.88
2022-09-18T14:25:13.312Z,3.97
2022-09-18T14:27:57.265Z,3.72
2022-09-18T14:30:30.550Z,4.32
2022-09-18T14:33:07.126Z,4.88
2022-09-18T14:35:53.420Z,5.15
2022-09-18T14:38:35.322Z,4.50
2022-09-18T14:41:23.560Z,4.40
2022-09-18T14:44:04.502Z,4.28
2022-09-18T14:46:33.530Z,4.30
2022-09-18T14:49:31.503Z,4.05
2022-09-18T14:52:04.249Z,4.07
2022-09-18T14:54:40.862Z,3.88
2022-09-18T14:57:14.325Z,3.90
2022-09-18T14:59:43.141Z,3.13
2022-09-18T15:02:23.705Z,3.97
2022-09-18T15:04:58.844Z,4.53
2022-09-18T15:07:30.398Z,5.78
2022-09-18T15:10:16.803Z,5.20
2022-09-18T15:13:09.343Z,4.72
2022-09-18T15:15:40.282Z,5.13
2022-09-18T15:18:27.812Z,8.05
2022-09-18T15:21:01.962Z,4.45
2022-09-18T15:23:40.140Z,3.70
2022-09-18T15:26:13.845Z,2.90
2022-09-18T15:28:47.551Z,2.60
2022-09-18T15:31:20.475Z,2.95
2022-09-18T15:33:51.075Z,2.50
2022-09-18T15:36:42.598Z,2.22
2022-09-18T15:39:38.218Z,2.03
2022-09-18T15:42:41.830Z,3.63
2022-09-18T15:45:38.019Z,3.30
2022-09-18T15:48:40.332Z,3.00
2022-09-18T15:51:27.033Z,2.58
2022-09-18T15:54:13.755Z,2.53
2022-09-18T15:57:01.377Z,2.42
2022-09-18T15:59:37.197Z,2.30
2022-09-18T16:02:32.856Z,2.90
2022-09-18T16:05:20.989Z,3.10
2022-09-18T16:08:19.369Z,2.83
2022-09-18T16:10:51.356Z,3.05
2022-09-18T16:13:22.068Z,2.90
2022-09-18T16:16:14.956Z,3.40
2022-09-18T16:19:20.159Z,3.50
2022-09-18T16:21:48.742Z,3.17
2022-09-18T16:24:30.842Z,3.72
2022-09-18T16:27:07.617Z,5.43
2022-09-18T16:29:40.091Z,4.03
2022-09-18T16:32:14.515Z,3.75
2022-09-18T16:34:47.190Z,4.07
2022-09-18T16:37:17.831Z,4.35
2022-09-18T16:39:52.800Z,4.15
2022-09-18T16:42:24.828Z,4.40
2022-09-18T16:44:57.294Z,4.90
2022-09-18T16:47:27.003Z,4.55
2022-09-18T16:49:55.791Z,4.90
2022-09-18T16:52:23.965Z,4.63
2022-09-18T16:54:52.752Z,5.50
2022-09-18T16:57:27.889Z,4.78
2022-09-18T17:00:04.768Z,4.68
2022-09-18T17:02:34.210Z,4.60
2022-09-18T17:05:02.651Z,4.63
2022-09-18T17:07:32.156Z,5.20
2022-09-18T17:10:37.398Z,4.28
2022-09-18T17:13:08.786Z,4.85
2022-09-18T17:15:37.227Z,4.30
2022-09-18T17:18:05.398Z,4.63
2022-09-18T17:20:34.596Z,4.50
2022-09-18T17:23:05.125Z,4.25
2022-09-18T17:25:33.506Z,4.40
2022-09-18T17:28:02.087Z,4.35
2022-09-18T17:30:33.948Z,4.35
2022-09-18T17:33:03.145Z,4.22
2022-09-18T17:35:38.794Z,3.88
2022-09-18T17:38:11.170Z,4.10
2022-09-18T17:40:43.281Z,3.90
2022-09-18T17:43:25.137Z,3.67
2022-09-18T17:46:06.411Z,11.35
2022-09-18T17:48:37.464Z,4.85
2022-09-18T17:51:12.082Z,3.50
2022-09-18T17:53:42.500Z,4.10
2022-09-18T17:56:13.029Z,4.00
2022-09-18T17:58:43.606Z,3.75
2022-09-18T18:01:20.305Z,3.38
2022-09-18T18:05:27.019Z,3.35
2022-09-18T18:08:33.386Z,3.42
2022-09-18T18:11:17.638Z,4.18
2022-09-18T18:13:56.581Z,3.47
2022-09-18T18:16:35.525Z,3.78
2022-09-18T18:19:12.270Z,3.90
2022-09-18T18:24:42.198Z,4.32
2022-09-18T18:27:42.118Z,4.72
2022-09-18T18:30:10.804Z,4.22
2022-09-18T18:32:43.276Z,4.40
2022-09-18T18:35:11.553Z,4.65
2022-09-18T18:37:47.336Z,5.28
2022-09-18T18:40:15.935Z,5.10
2022-09-18T18:42:44.618Z,3.92
2022-09-18T18:45:13.768Z,5.10
2022-09-18T18:47:48.906Z,5.28
2022-09-18T18:50:33.054Z,5.05
2022-09-18T18:53:01.331Z,5.10
2022-09-18T18:55:30.326Z,4.95
2022-09-18T18:57:58.497Z,5.88
2022-09-18T19:00:27.696Z,6.22
2022-09-18T19:02:56.373Z,6.03
2022-09-18T19:05:30.597Z,5.43
2022-09-18T19:08:11.775Z,6.30
2022-09-18T19:11:25.211Z,6.43
2022-09-18T19:14:04.544Z,6.38
2022-09-18T19:16:33.256Z,7.05
2022-09-18T19:19:06.626Z,7.32
2022-09-18T19:21:41.254Z,6.30
2022-09-18T19:24:11.267Z,7.00
2022-09-18T19:26:41.387Z,7.72
2022-09-18T19:29:31.986Z,8.32
2022-09-18T19:32:00.366Z,7.75
2022-09-18T19:34:28.641Z,8.15
2022-09-18T19:36:58.249Z,9.82
2022-09-18T19:39:27.241Z,9.10
2022-09-18T19:41:57.564Z,10.18
2022-09-18T19:44:42.224Z,9.20
2022-09-18T19:47:24.120Z,9.65
2022-09-18T19:49:55.572Z,8.73
2022-09-18T19:52:26.100Z,9.43
2022-09-18T19:54:56.220Z,9.57
2022-09-18T19:57:32.901Z,10.15
2022-09-18T20:00:01.596Z,10.18
2022-09-18T20:02:41.844Z,10.15
2022-09-18T20:05:16.357Z,10.23
2022-09-18T20:07:44.736Z,11.50
2022-09-18T20:10:24.978Z,11.02
2022-09-18T20:12:54.329Z,10.95
2022-09-18T20:15:48.817Z,10.93
2022-09-18T20:18:16.917Z,11.20
2022-09-18T20:20:52.506Z,11.32
2022-09-18T20:23:24.264Z,12.15
2022-09-18T20:26:10.256Z,12.25
2022-09-18T20:29:15.728Z,13.82
2022-09-18T20:31:46.171Z,14.63
2022-09-18T20:35:11.238Z,15.25
2022-09-18T20:37:52.518Z,16.23
2022-09-18T20:40:25.169Z,16.50
2022-09-18T20:42:55.829Z,17.20
2022-09-18T20:46:07.534Z,16.27
2022-09-18T20:48:57.611Z,15.88
2022-09-18T20:51:51.282Z,16.02
2022-09-18T20:54:23.142Z,14.52
2022-09-18T20:57:05.867Z,14.20
2022-09-18T20:59:34.237Z,12.88
2022-09-18T21:02:08.998Z,12.20
2022-09-18T21:04:46.567Z,11.70
2022-09-18T21:07:31.628Z,10.35
2022-09-18T21:10:03.519Z,9.77
2022-09-18T21:12:45.998Z,9.13
2022-09-18T21:15:18.883Z,8.43
2022-09-18T21:18:03.133Z,7.35
2022-09-18T21:20:53.510Z,6.55
2022-09-18T21:26:48.960Z,4.90
2022-09-18T21:33:58.539Z,4.85
2022-09-18T21:36:45.651Z,5.35
2022-09-18T21:39:22.425Z,4.70
2022-09-18T21:41:55.678Z,5.30
2022-09-18T21:45:23.563Z,4.88
2022-09-18T21:47:44.290Z,4.95
2022-09-18T21:56:44.463Z,6.50
2022-09-18T21:59:31.990Z,5.80
2022-09-18T22:03:04.970Z,5.57
2022-09-18T22:05:59.262Z,5.28
2022-09-18T22:12:39.553Z,5.70
2022-09-18T22:39:15.974Z,3.15
2022-09-18T22:42:18.347Z,3.55
2022-09-18T22:56:15.268Z,4.95
2022-09-18T22:58:53.196Z,3.97
2022-09-18T23:02:23.238Z,3.70
2022-09-18T23:05:22.599Z,3.83
2022-09-18T23:09:08.292Z,4.07
2022-09-18T23:15:25.636Z,3.90
2022-09-18T23:17:54.832Z,4.07
2022-09-18T23:20:25.464Z,4.15
2022-09-18T23:23:04.176Z,4.13
2022-09-18T23:26:20.794Z,4.28
2022-09-18T23:32:23.293Z,4.75
2022-09-18T23:35:12.152Z,4.47
2022-09-18T23:37:43.897Z,5.03
2022-09-18T23:40:51.302Z,4.45
2022-09-18T23:43:30.227Z,5.00
2022-09-18T23:46:20.678Z,5.03
2022-09-18T23:52:23.837Z,5.47
2022-09-18T23:55:19.863Z,5.50
2022-09-18T23:58:08.626Z,5.00
